sensor_id;sensor_type;location;lat;lon;timestamp;P1;durP1;ratioP1;P2;durP2;ratioP2
33453;SDS011;39400;49.744;7.012;2022-11-04T00:02:14;3.08;;;1.55;;
33453;SDS011;39400;49.744;7.012;2022-11-04T00:04:41;4.10;;;1.75;;
33453;SDS011;39400;49.744;7.012;2022-11-04T00:07:08;2.00;;;1.13;;
33453;SDS011;39400;49.744;7.012;2022-11-04T00:09:55;7.50;;;2.65;;
33453;SDS011;39400;49.744;7.012;2022-11-04T00:12:22;3.53;;;1.70;;
33453;SDS011;39400;49.744;7.012;2022-11-04T00:14:52;5.53;;;1.65;;
33453;SDS011;39400;49.744;7.012;2022-11-04T00:17:19;4.10;;;1.98;;
33453;SDS011;39400;49.744;7.012;2022-11-04T00:19:50;4.43;;;1.27;;
33453;SDS011;39400;49.744;7.012;2022-11-04T00:22:37;2.17;;;0.85;;
33453;SDS011;39400;49.744;7.012;2022-11-04T00:25:32;2.50;;;1.25;;
33453;SDS011;39400;49.744;7.012;2022-11-04T00:28:18;6.15;;;1.83;;
33453;SDS011;39400;49.744;7.012;2022-11-04T00:31:05;2.33;;;1.25;;
33453;SDS011;39400;49.744;7.012;2022-11-04T00:33:52;4.65;;;0.75;;
33453;SDS011;39400;49.744;7.012;2022-11-04T00:36:21;1.43;;;0.97;;
33453;SDS011;39400;49.744;7.012;2022-11-04T00:38:50;3.03;;;1.48;;
33453;SDS011;39400;49.744;7.012;2022-11-04T00:41:18;6.57;;;1.75;;
33453;SDS011;39400;49.744;7.012;2022-11-04T00:43:56;3.08;;;1.20;;
33453;SDS011;39400;49.744;7.012;2022-11-04T00:46:31;4.43;;;1.15;;
33453;SDS011;39400;49.744;7.012;2022-11-04T00:48:59;3.15;;;1.92;;
33453;SDS011;39400;49.744;7.012;2022-11-04T00:51:26;5.00;;;1.83;;
33453;SDS011;39400;49.744;7.012;2022-11-04T00:53:54;3.80;;;1.33;;
33453;SDS011;39400;49.744;7.012;2022-11-04T00:58:50;6.60;;;1.20;;
33453;SDS011;39400;49.744;7.012;2022-11-04T01:01:17;3.50;;;1.58;;
33453;SDS011;39400;49.744;7.012;2022-11-04T01:03:46;1.80;;;1.20;;
33453;SDS011;39400;49.744;7.012;2022-11-04T01:06:14;2.30;;;1.10;;
33453;SDS011;39400;49.744;7.012;2022-11-04T01:08:41;3.75;;;1.45;;
33453;SDS011;39400;49.744;7.012;2022-11-04T01:11:09;3.28;;;1.17;;
33453;SDS011;39400;49.744;7.012;2022-11-04T01:13:37;4.15;;;1.40;;
33453;SDS011;39400;49.744;7.012;2022-11-04T01:16:06;4.03;;;1.83;;
33453;SDS011;39400;49.744;7.012;2022-11-04T01:18:35;10.18;;;2.40;;
33453;SDS011;39400;49.744;7.012;2022-11-04T01:21:03;8.23;;;2.47;;
33453;SDS011;39400;49.744;7.012;2022-11-04T01:23:32;3.40;;;1.30;;
33453;SDS011;39400;49.744;7.012;2022-11-04T01:26:03;5.00;;;1.60;;
33453;SDS011;39400;49.744;7.012;2022-11-04T01:28:34;6.95;;;1.40;;
33453;SDS011;39400;49.744;7.012;2022-11-04T01:31:04;6.20;;;2.45;;
33453;SDS011;39400;49.744;7.012;2022-11-04T01:33:35;6.80;;;1.42;;
33453;SDS011;39400;49.744;7.012;2022-11-04T01:36:04;4.82;;;1.63;;
33453;SDS011;39400;49.744;7.012;2022-11-04T01:38:32;6.88;;;1.85;;
33453;SDS011;39400;49.744;7.012;2022-11-04T01:40:59;7.28;;;1.58;;
33453;SDS011;39400;49.744;7.012;2022-11-04T01:43:41;5.95;;;1.65;;
33453;SDS011;39400;49.744;7.012;2022-11-04T01:46:08;7.30;;;1.70;;
33453;SDS011;39400;49.744;7.012;2022-11-04T01:48:44;5.10;;;1.75;;
33453;SDS011;39400;49.744;7.012;2022-11-04T01:51:11;8.55;;;1.35;;
33453;SDS011;39400;49.744;7.012;2022-11-04T01:53:40;5.07;;;1.00;;
33453;SDS011;39400;49.744;7.012;2022-11-04T01:58:38;5.95;;;1.13;;
33453;SDS011;39400;49.744;7.012;2022-11-04T02:01:09;3.00;;;1.45;;
33453;SDS011;39400;49.744;7.012;2022-11-04T02:06:14;5.65;;;1.63;;
33453;SDS011;39400;49.744;7.012;2022-11-04T02:08:45;6.32;;;1.70;;
33453;SDS011;39400;49.744;7.012;2022-11-04T02:11:13;5.35;;;1.10;;
33453;SDS011;39400;49.744;7.012;2022-11-04T02:14:01;4.40;;;1.70;;
33453;SDS011;39400;49.744;7.012;2022-11-04T02:16:38;10.07;;;1.70;;
33453;SDS011;39400;49.744;7.012;2022-11-04T02:30:45;6.00;;;1.30;;
33453;SDS011;39400;49.744;7.012;2022-11-04T02:33:22;5.85;;;1.50;;
33453;SDS011;39400;49.744;7.012;2022-11-04T02:35:59;5.22;;;0.98;;
33453;SDS011;39400;49.744;7.012;2022-11-04T02:38:59;8.48;;;1.67;;
33453;SDS011;39400;49.744;7.012;2022-11-04T02:41:39;8.07;;;1.67;;
33453;SDS011;39400;49.744;7.012;2022-11-04T02:44:14;9.88;;;2.58;;
33453;SDS011;39400;49.744;7.012;2022-11-04T02:49:18;8.30;;;1.40;;
33453;SDS011;39400;49.744;7.012;2022-11-04T02:51:55;7.15;;;1.40;;
33453;SDS011;39400;49.744;7.012;2022-11-04T02:54:36;10.27;;;1.48;;
33453;SDS011;39400;49.744;7.012;2022-11-04T02:57:09;5.32;;;1.10;;
33453;SDS011;39400;49.744;7.012;2022-11-04T02:59:51;7.57;;;1.77;;
33453;SDS011;39400;49.744;7.012;2022-11-04T03:02:32;3.65;;;0.98;;
33453;SDS011;39400;49.744;7.012;2022-11-04T03:05:03;9.52;;;1.17;;
33453;SDS011;39400;49.744;7.012;2022-11-04T03:07:37;5.63;;;1.63;;
33453;SDS011;39400;49.744;7.012;2022-11-04T03:10:09;6.13;;;1.30;;
33453;SDS011;39400;49.744;7.012;2022-11-04T03:12:45;5.55;;;1.33;;
33453;SDS011;39400;49.744;7.012;2022-11-04T03:15:22;7.88;;;1.42;;
33453;SDS011;39400;49.744;7.012;2022-11-04T03:20:32;4.43;;;1.45;;
33453;SDS011;39400;49.744;7.012;2022-11-04T03:23:04;3.58;;;1.48;;
33453;SDS011;39400;49.744;7.012;2022-11-04T03:25:34;7.25;;;1.35;;
33453;SDS011;39400;49.744;7.012;2022-11-04T03:28:29;13.43;;;3.00;;
33453;SDS011;39400;49.744;7.012;2022-11-04T03:31:25;4.65;;;1.48;;
33453;SDS011;39400;49.744;7.012;2022-11-04T03:34:01;4.55;;;1.42;;
33453;SDS011;39400;49.744;7.012;2022-11-04T03:36:28;11.20;;;1.33;;
33453;SDS011;39400;49.744;7.012;2022-11-04T03:38:55;8.70;;;2.75;;
33453;SDS011;39400;49.744;7.012;2022-11-04T03:41:27;4.07;;;1.40;;
33453;SDS011;39400;49.744;7.012;2022-11-04T03:44:00;10.50;;;1.50;;
33453;SDS011;39400;49.744;7.012;2022-11-04T03:46:28;5.38;;;1.58;;
33453;SDS011;39400;49.744;7.012;2022-11-04T03:48:55;7.90;;;1.45;;
33453;SDS011;39400;49.744;7.012;2022-11-04T03:51:25;7.22;;;2.35;;
33453;SDS011;39400;49.744;7.012;2022-11-04T03:53:52;9.75;;;1.63;;
33453;SDS011;39400;49.744;7.012;2022-11-04T03:56:28;6.55;;;1.98;;
33453;SDS011;39400;49.744;7.012;2022-11-04T03:59:06;7.57;;;1.70;;
33453;SDS011;39400;49.744;7.012;2022-11-04T04:01:56;6.10;;;1.40;;
33453;SDS011;39400;49.744;7.012;2022-11-04T04:07:03;6.95;;;1.48;;
33453;SDS011;39400;49.744;7.012;2022-11-04T04:12:27;5.53;;;1.25;;
33453;SDS011;39400;49.744;7.012;2022-11-04T04:15:06;6.80;;;1.52;;
33453;SDS011;39400;49.744;7.012;2022-11-04T04:17:42;5.95;;;2.38;;
33453;SDS011;39400;49.744;7.012;2022-11-04T04:20:19;9.27;;;2.35;;
33453;SDS011;39400;49.744;7.012;2022-11-04T04:23:00;4.45;;;1.92;;
33453;SDS011;39400;49.744;7.012;2022-11-04T04:25:52;6.90;;;1.77;;
33453;SDS011;39400;49.744;7.012;2022-11-04T04:28:39;6.07;;;1.95;;
33453;SDS011;39400;49.744;7.012;2022-11-04T04:31:08;6.20;;;1.10;;
33453;SDS011;39400;49.744;7.012;2022-11-04T04:34:00;9.23;;;1.30;;
33453;SDS011;39400;49.744;7.012;2022-11-04T04:36:28;6.30;;;1.30;;
33453;SDS011;39400;49.744;7.012;2022-11-04T04:39:02;5.25;;;1.38;;
33453;SDS011;39400;49.744;7.012;2022-11-04T04:41:50;15.80;;;2.08;;
33453;SDS011;39400;49.744;7.012;2022-11-04T04:44:37;2.28;;;1.15;;
33453;SDS011;39400;49.744;7.012;2022-11-04T04:47:26;5.72;;;1.20;;
33453;SDS011;39400;49.744;7.012;2022-11-04T04:50:12;6.32;;;1.40;;
33453;SDS011;39400;49.744;7.012;2022-11-04T04:52:42;11.98;;;3.30;;
33453;SDS011;39400;49.744;7.012;2022-11-04T04:55:12;5.20;;;1.25;;
33453;SDS011;39400;49.744;7.012;2022-11-04T04:57:39;3.63;;;1.00;;
33453;SDS011;39400;49.744;7.012;2022-11-04T05:00:07;5.22;;;1.65;;
33453;SDS011;39400;49.744;7.012;2022-11-04T05:02:37;4.65;;;1.33;;
33453;SDS011;39400;49.744;7.012;2022-11-04T05:05:05;6.95;;;1.30;;
33453;SDS011;39400;49.744;7.012;2022-11-04T05:07:32;9.00;;;1.23;;
33453;SDS011;39400;49.744;7.012;2022-11-04T05:10:00;3.28;;;1.38;;
33453;SDS011;39400;49.744;7.012;2022-11-04T05:12:27;5.65;;;1.42;;
33453;SDS011;39400;49.744;7.012;2022-11-04T05:15:14;6.95;;;1.38;;
33453;SDS011;39400;49.744;7.012;2022-11-04T05:17:41;5.88;;;1.00;;
33453;SDS011;39400;49.744;7.012;2022-11-04T05:20:08;2.95;;;1.02;;
33453;SDS011;39400;49.744;7.012;2022-11-04T05:22:36;6.38;;;1.20;;
33453;SDS011;39400;49.744;7.012;2022-11-04T05:25:03;4.93;;;1.40;;
33453;SDS011;39400;49.744;7.012;2022-11-04T05:27:30;8.65;;;1.48;;
33453;SDS011;39400;49.744;7.012;2022-11-04T05:29:58;7.82;;;1.35;;
33453;SDS011;39400;49.744;7.012;2022-11-04T05:32:27;3.75;;;1.55;;
33453;SDS011;39400;49.744;7.012;2022-11-04T05:34:55;6.05;;;1.77;;
33453;SDS011;39400;49.744;7.012;2022-11-04T05:37:22;8.20;;;1.90;;
33453;SDS011;39400;49.744;7.012;2022-11-04T05:39:50;6.93;;;1.08;;
33453;SDS011;39400;49.744;7.012;2022-11-04T05:42:18;6.03;;;1.13;;
33453;SDS011;39400;49.744;7.012;2022-11-04T05:44:45;5.90;;;1.70;;
33453;SDS011;39400;49.744;7.012;2022-11-04T05:47:12;4.97;;;1.08;;
33453;SDS011;39400;49.744;7.012;2022-11-04T05:49:39;10.80;;;1.25;;
33453;SDS011;39400;49.744;7.012;2022-11-04T05:52:06;9.10;;;1.38;;
33453;SDS011;39400;49.744;7.012;2022-11-04T05:54:35;22.33;;;3.25;;
33453;SDS011;39400;49.744;7.012;2022-11-04T05:59:29;8.48;;;1.38;;
33453;SDS011;39400;49.744;7.012;2022-11-04T06:01:56;9.27;;;1.73;;
33453;SDS011;39400;49.744;7.012;2022-11-04T06:04:24;6.47;;;1.20;;
33453;SDS011;39400;49.744;7.012;2022-11-04T06:06:51;8.82;;;1.50;;
33453;SDS011;39400;49.744;7.012;2022-11-04T06:09:18;5.80;;;1.27;;
33453;SDS011;39400;49.744;7.012;2022-11-04T06:11:45;4.18;;;1.65;;
33453;SDS011;39400;49.744;7.012;2022-11-04T06:14:12;9.07;;;2.47;;
33453;SDS011;39400;49.744;7.012;2022-11-04T06:16:44;9.55;;;2.13;;
33453;SDS011;39400;49.744;7.012;2022-11-04T06:19:11;8.45;;;1.45;;
33453;SDS011;39400;49.744;7.012;2022-11-04T06:21:42;10.85;;;1.55;;
33453;SDS011;39400;49.744;7.012;2022-11-04T06:24:09;4.47;;;1.70;;
33453;SDS011;39400;49.744;7.012;2022-11-04T06:26:36;2.42;;;1.05;;
33453;SDS011;39400;49.744;7.012;2022-11-04T06:29:05;6.57;;;1.60;;
33453;SDS011;39400;49.744;7.012;2022-11-04T06:31:32;6.45;;;1.65;;
33453;SDS011;39400;49.744;7.012;2022-11-04T06:33:59;5.57;;;1.45;;
33453;SDS011;39400;49.744;7.012;2022-11-04T06:36:26;4.85;;;1.95;;
33453;SDS011;39400;49.744;7.012;2022-11-04T06:38:53;3.30;;;1.23;;
33453;SDS011;39400;49.744;7.012;2022-11-04T06:41:27;6.10;;;1.55;;
33453;SDS011;39400;49.744;7.012;2022-11-04T06:43:54;4.80;;;1.23;;
33453;SDS011;39400;49.744;7.012;2022-11-04T06:46:22;4.18;;;1.08;;
33453;SDS011;39400;49.744;7.012;2022-11-04T06:48:53;5.72;;;1.20;;
33453;SDS011;39400;49.744;7.012;2022-11-04T06:51:22;7.82;;;1.63;;
33453;SDS011;39400;49.744;7.012;2022-11-04T06:53:50;9.05;;;2.38;;
33453;SDS011;39400;49.744;7.012;2022-11-04T06:56:17;7.25;;;1.98;;
33453;SDS011;39400;49.744;7.012;2022-11-04T06:58:50;6.75;;;1.90;;
33453;SDS011;39400;49.744;7.012;2022-11-04T07:01:19;7.55;;;2.65;;
33453;SDS011;39400;49.744;7.012;2022-11-04T07:03:49;9.77;;;1.95;;
33453;SDS011;39400;49.744;7.012;2022-11-04T07:06:17;4.80;;;2.03;;
33453;SDS011;39400;49.744;7.012;2022-11-04T07:08:46;3.58;;;2.53;;
33453;SDS011;39400;49.744;7.012;2022-11-04T07:11:15;2.88;;;2.13;;
33453;SDS011;39400;49.744;7.012;2022-11-04T07:13:43;10.70;;;2.70;;
33453;SDS011;39400;49.744;7.012;2022-11-04T07:16:11;10.23;;;2.90;;
33453;SDS011;39400;49.744;7.012;2022-11-04T07:18:38;5.65;;;3.00;;
33453;SDS011;39400;49.744;7.012;2022-11-04T07:21:05;5.05;;;2.97;;
33453;SDS011;39400;49.744;7.012;2022-11-04T07:23:36;6.75;;;2.75;;
33453;SDS011;39400;49.744;7.012;2022-11-04T07:26:04;3.60;;;2.75;;
33453;SDS011;39400;49.744;7.012;2022-11-04T07:28:33;4.65;;;3.35;;
33453;SDS011;39400;49.744;7.012;2022-11-04T07:31:01;3.78;;;2.75;;
33453;SDS011;39400;49.744;7.012;2022-11-04T07:33:30;4.43;;;3.10;;
33453;SDS011;39400;49.744;7.012;2022-11-04T07:36:05;5.13;;;2.72;;
33453;SDS011;39400;49.744;7.012;2022-11-04T07:38:36;3.50;;;2.25;;
33453;SDS011;39400;49.744;7.012;2022-11-04T07:41:03;4.05;;;2.30;;
33453;SDS011;39400;49.744;7.012;2022-11-04T07:43:30;2.70;;;1.92;;
33453;SDS011;39400;49.744;7.012;2022-11-04T07:46:05;5.28;;;2.75;;
33453;SDS011;39400;49.744;7.012;2022-11-04T07:48:34;7.60;;;2.83;;
33453;SDS011;39400;49.744;7.012;2022-11-04T07:51:02;5.57;;;3.28;;
33453;SDS011;39400;49.744;7.012;2022-11-04T07:53:32;7.70;;;2.88;;
33453;SDS011;39400;49.744;7.012;2022-11-04T07:56:03;6.00;;;2.63;;
33453;SDS011;39400;49.744;7.012;2022-11-04T07:58:32;6.78;;;2.72;;
33453;SDS011;39400;49.744;7.012;2022-11-04T08:01:01;5.22;;;3.05;;
33453;SDS011;39400;49.744;7.012;2022-11-04T08:03:31;6.22;;;3.08;;
33453;SDS011;39400;49.744;7.012;2022-11-04T08:05:59;6.47;;;3.70;;
33453;SDS011;39400;49.744;7.012;2022-11-04T08:08:28;5.53;;;2.45;;
33453;SDS011;39400;49.744;7.012;2022-11-04T08:10:58;3.75;;;2.35;;
33453;SDS011;39400;49.744;7.012;2022-11-04T08:13:27;3.95;;;2.10;;
33453;SDS011;39400;49.744;7.012;2022-11-04T08:16:02;7.55;;;2.88;;
33453;SDS011;39400;49.744;7.012;2022-11-04T08:18:32;4.65;;;2.95;;
33453;SDS011;39400;49.744;7.012;2022-11-04T08:20:59;6.82;;;2.63;;
33453;SDS011;39400;49.744;7.012;2022-11-04T08:23:28;4.05;;;2.60;;
33453;SDS011;39400;49.744;7.012;2022-11-04T08:25:55;7.03;;;2.38;;
33453;SDS011;39400;49.744;7.012;2022-11-04T08:28:23;9.63;;;3.15;;
33453;SDS011;39400;49.744;7.012;2022-11-04T08:30:55;6.05;;;2.83;;
33453;SDS011;39400;49.744;7.012;2022-11-04T08:33:24;8.25;;;3.63;;
33453;SDS011;39400;49.744;7.012;2022-11-04T08:35:53;5.47;;;3.42;;
33453;SDS011;39400;49.744;7.012;2022-11-04T08:38:21;7.68;;;3.83;;
33453;SDS011;39400;49.744;7.012;2022-11-04T08:40:48;3.80;;;3.05;;
33453;SDS011;39400;49.744;7.012;2022-11-04T08:43:15;8.52;;;2.65;;
33453;SDS011;39400;49.744;7.012;2022-11-04T08:45:43;2.58;;;1.90;;
33453;SDS011;39400;49.744;7.012;2022-11-04T08:48:12;3.42;;;2.15;;
33453;SDS011;39400;49.744;7.012;2022-11-04T08:50:40;4.30;;;2.30;;
33453;SDS011;39400;49.744;7.012;2022-11-04T08:53:07;10.90;;;3.00;;
33453;SDS011;39400;49.744;7.012;2022-11-04T08:55:34;3.92;;;2.20;;
33453;SDS011;39400;49.744;7.012;2022-11-04T08:58:02;3.40;;;2.20;;
33453;SDS011;39400;49.744;7.012;2022-11-04T09:00:29;4.60;;;1.90;;
33453;SDS011;39400;49.744;7.012;2022-11-04T09:02:58;5.07;;;1.40;;
33453;SDS011;39400;49.744;7.012;2022-11-04T09:05:25;3.72;;;2.00;;
33453;SDS011;39400;49.744;7.012;2022-11-04T09:07:53;3.80;;;1.98;;
33453;SDS011;39400;49.744;7.012;2022-11-04T09:10:20;4.03;;;2.30;;
33453;SDS011;39400;49.744;7.012;2022-11-04T09:12:48;2.75;;;1.65;;
33453;SDS011;39400;49.744;7.012;2022-11-04T09:15:15;3.60;;;1.55;;
33453;SDS011;39400;49.744;7.012;2022-11-04T09:17:42;2.85;;;1.70;;
33453;SDS011;39400;49.744;7.012;2022-11-04T09:20:10;3.42;;;1.60;;
33453;SDS011;39400;49.744;7.012;2022-11-04T09:22:37;5.20;;;1.83;;
33453;SDS011;39400;49.744;7.012;2022-11-04T09:25:11;5.03;;;2.10;;
33453;SDS011;39400;49.744;7.012;2022-11-04T09:27:38;2.35;;;1.65;;
33453;SDS011;39400;49.744;7.012;2022-11-04T09:30:05;3.22;;;1.90;;
33453;SDS011;39400;49.744;7.012;2022-11-04T09:32:33;3.78;;;1.88;;
33453;SDS011;39400;49.744;7.012;2022-11-04T09:35:00;7.10;;;2.13;;
33453;SDS011;39400;49.744;7.012;2022-11-04T09:37:27;2.83;;;1.88;;
33453;SDS011;39400;49.744;7.012;2022-11-04T09:39:54;4.75;;;2.00;;
33453;SDS011;39400;49.744;7.012;2022-11-04T09:42:31;8.20;;;2.50;;
33453;SDS011;39400;49.744;7.012;2022-11-04T09:45:13;4.82;;;2.33;;
33453;SDS011;39400;49.744;7.012;2022-11-04T09:47:49;3.22;;;2.03;;
33453;SDS011;39400;49.744;7.012;2022-11-04T09:50:22;3.13;;;2.25;;
33453;SDS011;39400;49.744;7.012;2022-11-04T09:52:55;5.07;;;2.15;;
33453;SDS011;39400;49.744;7.012;2022-11-04T09:55:34;3.90;;;2.20;;
33453;SDS011;39400;49.744;7.012;2022-11-04T09:58:07;3.87;;;2.00;;
33453;SDS011;39400;49.744;7.012;2022-11-04T10:00:38;5.15;;;2.47;;
33453;SDS011;39400;49.744;7.012;2022-11-04T10:03:14;5.47;;;2.22;;
33453;SDS011;39400;49.744;7.012;2022-11-04T10:05:59;9.05;;;2.30;;
33453;SDS011;39400;49.744;7.012;2022-11-04T10:08:41;3.25;;;1.85;;
33453;SDS011;39400;49.744;7.012;2022-11-04T10:11:18;2.63;;;2.05;;
33453;SDS011;39400;49.744;7.012;2022-11-04T10:14:14;4.20;;;1.90;;
33453;SDS011;39400;49.744;7.012;2022-11-04T10:22:33;4.43;;;2.25;;
33453;SDS011;39400;49.744;7.012;2022-11-04T10:25:21;4.82;;;2.42;;
33453;SDS011;39400;49.744;7.012;2022-11-04T10:27:50;4.63;;;2.42;;
33453;SDS011;39400;49.744;7.012;2022-11-04T10:30:19;4.35;;;2.63;;
33453;SDS011;39400;49.744;7.012;2022-11-04T10:32:54;5.10;;;2.80;;
33453;SDS011;39400;49.744;7.012;2022-11-04T10:38:35;4.85;;;2.83;;
33453;SDS011;39400;49.744;7.012;2022-11-04T10:43:45;4.18;;;2.22;;
33453;SDS011;39400;49.744;7.012;2022-11-04T10:51:20;5.47;;;2.15;;
33453;SDS011;39400;49.744;7.012;2022-11-04T10:53:52;2.15;;;1.92;;
33453;SDS011;39400;49.744;7.012;2022-11-04T10:56:39;4.13;;;2.08;;
33453;SDS011;39400;49.744;7.012;2022-11-04T10:59:17;2.88;;;2.10;;
33453;SDS011;39400;49.744;7.012;2022-11-04T11:01:51;6.47;;;2.60;;
33453;SDS011;39400;49.744;7.012;2022-11-04T11:04:33;4.45;;;2.22;;
33453;SDS011;39400;49.744;7.012;2022-11-04T11:07:05;4.53;;;2.20;;
33453;SDS011;39400;49.744;7.012;2022-11-04T11:09:35;4.53;;;2.75;;
33453;SDS011;39400;49.744;7.012;2022-11-04T11:14:57;4.03;;;2.25;;
33453;SDS011;39400;49.744;7.012;2022-11-04T11:17:35;3.20;;;2.10;;
33453;SDS011;39400;49.744;7.012;2022-11-04T11:22:41;4.43;;;2.33;;
33453;SDS011;39400;49.744;7.012;2022-11-04T11:27:59;5.30;;;2.47;;
33453;SDS011;39400;49.744;7.012;2022-11-04T11:30:29;2.50;;;1.60;;
33453;SDS011;39400;49.744;7.012;2022-11-04T11:35:57;1.50;;;1.38;;
33453;SDS011;39400;49.744;7.012;2022-11-04T11:38:29;1.55;;;1.17;;
33453;SDS011;39400;49.744;7.012;2022-11-04T11:41:18;10.48;;;1.98;;
33453;SDS011;39400;49.744;7.012;2022-11-04T11:43:52;2.88;;;1.88;;
33453;SDS011;39400;49.744;7.012;2022-11-04T11:46:27;2.40;;;1.58;;
33453;SDS011;39400;49.744;7.012;2022-11-04T11:48:57;2.15;;;1.25;;
33453;SDS011;39400;49.744;7.012;2022-11-04T11:51:33;2.38;;;2.00;;
33453;SDS011;39400;49.744;7.012;2022-11-04T11:54:22;1.35;;;1.15;;
33453;SDS011;39400;49.744;7.012;2022-11-04T11:56:55;2.20;;;1.30;;
33453;SDS011;39400;49.744;7.012;2022-11-04T11:59:47;2.95;;;1.20;;
33453;SDS011;39400;49.744;7.012;2022-11-04T12:02:49;4.00;;;1.40;;
33453;SDS011;39400;49.744;7.012;2022-11-04T12:05:22;5.47;;;2.50;;
33453;SDS011;39400;49.744;7.012;2022-11-04T12:14:14;1.42;;;1.10;;
33453;SDS011;39400;49.744;7.012;2022-11-04T12:16:45;4.85;;;2.22;;
33453;SDS011;39400;49.744;7.012;2022-11-04T12:19:36;2.85;;;1.80;;
33453;SDS011;39400;49.744;7.012;2022-11-04T12:22:28;7.75;;;2.13;;
33453;SDS011;39400;49.744;7.012;2022-11-04T12:30:22;1.40;;;0.77;;
33453;SDS011;39400;49.744;7.012;2022-11-04T12:36:05;1.98;;;0.80;;
33453;SDS011;39400;49.744;7.012;2022-11-04T12:44:47;2.33;;;1.02;;
33453;SDS011;39400;49.744;7.012;2022-11-04T12:47:36;2.20;;;1.38;;
33453;SDS011;39400;49.744;7.012;2022-11-04T12:56:11;5.00;;;1.85;;
33453;SDS011;39400;49.744;7.012;2022-11-04T13:06:52;3.80;;;1.98;;
33453;SDS011;39400;49.744;7.012;2022-11-04T13:12:13;6.80;;;4.13;;
33453;SDS011;39400;49.744;7.012;2022-11-04T13:17:14;3.05;;;2.17;;
33453;SDS011;39400;49.744;7.012;2022-11-04T13:22:12;2.38;;;1.73;;
33453;SDS011;39400;49.744;7.012;2022-11-04T13:24:49;2.72;;;1.38;;
33453;SDS011;39400;49.744;7.012;2022-11-04T13:27:20;1.55;;;1.30;;
33453;SDS011;39400;49.744;7.012;2022-11-04T13:38:14;3.65;;;2.20;;
33453;SDS011;39400;49.744;7.012;2022-11-04T13:43:52;5.97;;;1.65;;
33453;SDS011;39400;49.744;7.012;2022-11-04T13:46:24;4.38;;;1.80;;
33453;SDS011;39400;49.744;7.012;2022-11-04T13:49:02;27.40;;;11.13;;
33453;SDS011;39400;49.744;7.012;2022-11-04T13:51:35;5.05;;;2.50;;
33453;SDS011;39400;49.744;7.012;2022-11-04T13:54:13;8.23;;;4.20;;
33453;SDS011;39400;49.744;7.012;2022-11-04T13:57:02;5.82;;;2.92;;
33453;SDS011;39400;49.744;7.012;2022-11-04T13:59:30;8.02;;;3.80;;
33453;SDS011;39400;49.744;7.012;2022-11-04T14:04:38;3.13;;;1.50;;
33453;SDS011;39400;49.744;7.012;2022-11-04T14:07:11;2.75;;;1.85;;
33453;SDS011;39400;49.744;7.012;2022-11-04T14:14:46;3.15;;;1.33;;
33453;SDS011;39400;49.744;7.012;2022-11-04T14:27:56;5.70;;;3.25;;
33453;SDS011;39400;49.744;7.012;2022-11-04T14:30:29;7.22;;;3.63;;
33453;SDS011;39400;49.744;7.012;2022-11-04T14:33:01;4.97;;;2.10;;
33453;SDS011;39400;49.744;7.012;2022-11-04T14:35:32;6.03;;;2.10;;
33453;SDS011;39400;49.744;7.012;2022-11-04T14:38:05;5.60;;;1.40;;
33453;SDS011;39400;49.744;7.012;2022-11-04T14:40:50;2.63;;;1.52;;
33453;SDS011;39400;49.744;7.012;2022-11-04T14:43:39;1.73;;;1.25;;
33453;SDS011;39400;49.744;7.012;2022-11-04T14:46:09;3.03;;;1.52;;
33453;SDS011;39400;49.744;7.012;2022-11-04T14:48:41;2.60;;;1.92;;
33453;SDS011;39400;49.744;7.012;2022-11-04T14:51:19;2.58;;;1.70;;
33453;SDS011;39400;49.744;7.012;2022-11-04T14:53:51;4.05;;;2.10;;
33453;SDS011;39400;49.744;7.012;2022-11-04T14:56:22;6.15;;;2.75;;
33453;SDS011;39400;49.744;7.012;2022-11-04T15:01:24;4.15;;;2.47;;
33453;SDS011;39400;49.744;7.012;2022-11-04T15:04:05;8.57;;;3.83;;
33453;SDS011;39400;49.744;7.012;2022-11-04T15:06:40;14.88;;;7.05;;
33453;SDS011;39400;49.744;7.012;2022-11-04T15:09:31;7.53;;;5.45;;
33453;SDS011;39400;49.744;7.012;2022-11-04T15:12:15;14.70;;;13.70;;
33453;SDS011;39400;49.744;7.012;2022-11-04T15:20:23;3.38;;;1.98;;
33453;SDS011;39400;49.744;7.012;2022-11-04T15:22:52;2.47;;;2.20;;
33453;SDS011;39400;49.744;7.012;2022-11-04T15:25:21;11.82;;;7.05;;
33453;SDS011;39400;49.744;7.012;2022-11-04T15:27:48;8.05;;;4.97;;
33453;SDS011;39400;49.744;7.012;2022-11-04T15:30:26;7.65;;;3.47;;
33453;SDS011;39400;49.744;7.012;2022-11-04T15:32:56;3.72;;;2.17;;
33453;SDS011;39400;49.744;7.012;2022-11-04T15:35:26;2.92;;;1.52;;
33453;SDS011;39400;49.744;7.012;2022-11-04T15:37:56;1.27;;;0.90;;
33453;SDS011;39400;49.744;7.012;2022-11-04T15:40:25;2.45;;;1.45;;
33453;SDS011;39400;49.744;7.012;2022-11-04T15:43:02;4.38;;;1.70;;
33453;SDS011;39400;49.744;7.012;2022-11-04T15:53:23;6.35;;;3.38;;
33453;SDS011;39400;49.744;7.012;2022-11-04T15:55:51;6.32;;;3.67;;
33453;SDS011;39400;49.744;7.012;2022-11-04T15:58:18;8.68;;;4.93;;
33453;SDS011;39400;49.744;7.012;2022-11-04T16:00:52;10.38;;;6.30;;
33453;SDS011;39400;49.744;7.012;2022-11-04T16:03:21;6.03;;;3.42;;
33453;SDS011;39400;49.744;7.012;2022-11-04T16:06:00;2.55;;;2.00;;
33453;SDS011;39400;49.744;7.012;2022-11-04T16:08:30;2.60;;;1.83;;
33453;SDS011;39400;49.744;7.012;2022-11-04T16:13:57;3.78;;;2.72;;
33453;SDS011;39400;49.744;7.012;2022-11-04T16:16:44;3.97;;;2.55;;
33453;SDS011;39400;49.744;7.012;2022-11-04T16:19:20;7.22;;;5.57;;
33453;SDS011;39400;49.744;7.012;2022-11-04T16:22:01;6.60;;;4.13;;
33453;SDS011;39400;49.744;7.012;2022-11-04T16:24:31;5.65;;;3.67;;
33453;SDS011;39400;49.744;7.012;2022-11-04T16:29:30;4.30;;;3.00;;
33453;SDS011;39400;49.744;7.012;2022-11-04T16:32:13;4.13;;;2.35;;
33453;SDS011;39400;49.744;7.012;2022-11-04T16:34:47;5.85;;;3.75;;
33453;SDS011;39400;49.744;7.012;2022-11-04T16:37:15;14.07;;;9.77;;
33453;SDS011;39400;49.744;7.012;2022-11-04T16:39:44;5.28;;;3.58;;
33453;SDS011;39400;49.744;7.012;2022-11-04T16:42:11;4.65;;;3.38;;
33453;SDS011;39400;49.744;7.012;2022-11-04T16:44:44;13.27;;;9.10;;
33453;SDS011;39400;49.744;7.012;2022-11-04T16:47:13;10.20;;;5.15;;
33453;SDS011;39400;49.744;7.012;2022-11-04T16:49:41;14.90;;;8.35;;
33453;SDS011;39400;49.744;7.012;2022-11-04T16:52:11;9.88;;;6.90;;
33453;SDS011;39400;49.744;7.012;2022-11-04T16:54:45;6.35;;;4.25;;
33453;SDS011;39400;49.744;7.012;2022-11-04T16:57:13;4.95;;;2.83;;
33453;SDS011;39400;49.744;7.012;2022-11-04T16:59:40;4.65;;;3.30;;
33453;SDS011;39400;49.744;7.012;2022-11-04T17:02:51;14.10;;;5.07;;
33453;SDS011;39400;49.744;7.012;2022-11-04T17:05:03;10.52;;;6.22;;
33453;SDS011;39400;49.744;7.012;2022-11-04T17:07:31;10.52;;;6.20;;
33453;SDS011;39400;49.744;7.012;2022-11-04T17:10:25;8.98;;;4.10;;
33453;SDS011;39400;49.744;7.012;2022-11-04T17:12:53;10.57;;;6.55;;
33453;SDS011;39400;49.744;7.012;2022-11-04T17:15:20;9.10;;;5.65;;
33453;SDS011;39400;49.744;7.012;2022-11-04T17:17:48;9.55;;;6.20;;
33453;SDS011;39400;49.744;7.012;2022-11-04T17:20:15;15.07;;;11.98;;
33453;SDS011;39400;49.744;7.012;2022-11-04T17:22:44;19.63;;;15.07;;
33453;SDS011;39400;49.744;7.012;2022-11-04T17:25:14;11.23;;;8.27;;
33453;SDS011;39400;49.744;7.012;2022-11-04T17:27:44;6.53;;;4.32;;
33453;SDS011;39400;49.744;7.012;2022-11-04T17:30:11;14.13;;;7.90;;
33453;SDS011;39400;49.744;7.012;2022-11-04T17:32:40;11.50;;;5.80;;
33453;SDS011;39400;49.744;7.012;2022-11-04T17:35:08;9.80;;;4.60;;
33453;SDS011;39400;49.744;7.012;2022-11-04T17:37:37;5.05;;;3.30;;
33453;SDS011;39400;49.744;7.012;2022-11-04T17:40:04;6.78;;;4.35;;
33453;SDS011;39400;49.744;7.012;2022-11-04T17:42:34;12.95;;;7.57;;
33453;SDS011;39400;49.744;7.012;2022-11-04T17:45:20;18.73;;;11.23;;
33453;SDS011;39400;49.744;7.012;2022-11-04T17:47:47;13.80;;;7.90;;
33453;SDS011;39400;49.744;7.012;2022-11-04T17:50:14;12.63;;;7.75;;
33453;SDS011;39400;49.744;7.012;2022-11-04T17:52:41;10.00;;;5.15;;